sensor_id;sensor_type;location;lat;lon;timestamp;temperature;humidity
42187;DHT22;27858;51.414;0.018;2024-01-11T00:01:35;1.50;99.90
42187;DHT22;27858;51.414;0.018;2024-01-11T00:04:02;1.40;99.90
42187;DHT22;27858;51.414;0.018;2024-01-11T00:06:29;1.50;99.90
42187;DHT22;27858;51.414;0.018;2024-01-11T00:08:56;1.40;99.90
42187;DHT22;27858;51.414;0.018;2024-01-11T00:11:23;1.40;99.90
42187;DHT22;27858;51.414;0.018;2024-01-11T00:13:50;1.40;99.90
42187;DHT22;27858;51.414;0.018;2024-01-11T00:16:16;1.40;99.90
42187;DHT22;27858;51.414;0.018;2024-01-11T00:18:43;1.30;99.90
42187;DHT22;27858;51.414;0.018;2024-01-11T00:21:11;1.30;99.90
42187;DHT22;27858;51.414;0.018;2024-01-11T00:23:38;1.20;99.90
42187;DHT22;27858;51.414;0.018;2024-01-11T00:26:05;1.30;99.90
42187;DHT22;27858;51.414;0.018;2024-01-11T00:28:32;1.30;99.90
42187;DHT22;27858;51.414;0.018;2024-01-11T00:30:59;1.20;99.90
42187;DHT22;27858;51.414;0.018;2024-01-11T00:33:25;1.20;99.90
42187;DHT22;27858;51.414;0.018;2024-01-11T00:35:52;1.30;99.90
42187;DHT22;27858;51.414;0.018;2024-01-11T00:38:19;1.20;99.90
42187;DHT22;27858;51.414;0.018;2024-01-11T00:40:46;1.20;99.90
42187;DHT22;27858;51.414;0.018;2024-01-11T00:43:13;1.20;99.90
42187;DHT22;27858;51.414;0.018;2024-01-11T00:45:39;1.20;99.90
42187;DHT22;27858;51.414;0.018;2024-01-11T00:48:06;1.10;99.90
42187;DHT22;27858;51.414;0.018;2024-01-11T00:50:33;1.20;99.90
42187;DHT22;27858;51.414;0.018;2024-01-11T00:53:00;1.20;99.90
42187;DHT22;27858;51.414;0.018;2024-01-11T00:55:27;1.10;99.90
42187;DHT22;27858;51.414;0.018;2024-01-11T00:57:54;1.10;99.90
42187;DHT22;27858;51.414;0.018;2024-01-11T01:00:21;1.10;99.90
42187;DHT22;27858;51.414;0.018;2024-01-11T01:02:48;1.10;99.90
42187;DHT22;27858;51.414;0.018;2024-01-11T01:05:14;1.10;99.90
42187;DHT22;27858;51.414;0.018;2024-01-11T01:07:41;1.10;99.90
42187;DHT22;27858;51.414;0.018;2024-01-11T01:10:08;1.10;99.90
42187;DHT22;27858;51.414;0.018;2024-01-11T01:12:35;1.10;99.90
42187;DHT22;27858;51.414;0.018;2024-01-11T01:15:02;1.00;99.90
42187;DHT22;27858;51.414;0.018;2024-01-11T01:17:29;1.00;99.90
42187;DHT22;27858;51.414;0.018;2024-01-11T01:19:56;1.00;99.90
42187;DHT22;27858;51.414;0.018;2024-01-11T01:22:24;0.90;99.90
42187;DHT22;27858;51.414;0.018;2024-01-11T01:24:51;0.90;99.90
42187;DHT22;27858;51.414;0.018;2024-01-11T01:27:17;0.80;99.90
42187;DHT22;27858;51.414;0.018;2024-01-11T01:29:44;0.90;99.90
42187;DHT22;27858;51.414;0.018;2024-01-11T01:32:11;0.80;99.90
42187;DHT22;27858;51.414;0.018;2024-01-11T01:34:38;0.80;99.90
42187;DHT22;27858;51.414;0.018;2024-01-11T01:37:04;0.90;99.90
42187;DHT22;27858;51.414;0.018;2024-01-11T01:39:32;0.80;99.90
42187;DHT22;27858;51.414;0.018;2024-01-11T01:41:59;0.80;99.90
42187;DHT22;27858;51.414;0.018;2024-01-11T01:44:26;0.80;99.90
42187;DHT22;27858;51.414;0.018;2024-01-11T01:46:52;0.70;99.90
42187;DHT22;27858;51.414;0.018;2024-01-11T01:49:20;0.80;99.90
42187;DHT22;27858;51.414;0.018;2024-01-11T01:51:49;0.80;99.90
42187;DHT22;27858;51.414;0.018;2024-01-11T01:54:17;0.80;99.90
42187;DHT22;27858;51.414;0.018;2024-01-11T01:56:45;0.70;99.90
42187;DHT22;27858;51.414;0.018;2024-01-11T01:59:12;0.70;99.90
42187;DHT22;27858;51.414;0.018;2024-01-11T02:01:40;0.70;99.90
42187;DHT22;27858;51.414;0.018;2024-01-11T02:04:07;0.70;99.90
42187;DHT22;27858;51.414;0.018;2024-01-11T02:06:34;0.70;99.90
42187;DHT22;27858;51.414;0.018;2024-01-11T02:09:01;0.50;99.90
42187;DHT22;27858;51.414;0.018;2024-01-11T02:11:31;0.50;99.90
42187;DHT22;27858;51.414;0.018;2024-01-11T02:13:58;0.50;99.90
42187;DHT22;27858;51.414;0.018;2024-01-11T02:16:25;0.50;99.90
42187;DHT22;27858;51.414;0.018;2024-01-11T02:18:52;0.50;99.90
42187;DHT22;27858;51.414;0.018;2024-01-11T02:21:19;0.50;99.90
42187;DHT22;27858;51.414;0.018;2024-01-11T02:24:03;0.50;99.90
42187;DHT22;27858;51.414;0.018;2024-01-11T02:26:30;0.40;99.90
42187;DHT22;27858;51.414;0.018;2024-01-11T02:28:57;0.40;99.90
42187;DHT22;27858;51.414;0.018;2024-01-11T02:31:24;0.40;99.90
42187;DHT22;27858;51.414;0.018;2024-01-11T02:33:54;0.30;99.90
42187;DHT22;27858;51.414;0.018;2024-01-11T02:36:22;0.30;99.90
42187;DHT22;27858;51.414;0.018;2024-01-11T02:38:50;0.20;99.90
42187;DHT22;27858;51.414;0.018;2024-01-11T02:41:18;0.20;99.90
42187;DHT22;27858;51.414;0.018;2024-01-11T02:43:48;0.30;99.90
42187;DHT22;27858;51.414;0.018;2024-01-11T02:46:16;0.30;99.90
42187;DHT22;27858;51.414;0.018;2024-01-11T02:48:43;0.30;99.90
42187;DHT22;27858;51.414;0.018;2024-01-11T02:51:11;0.30;99.90
42187;DHT22;27858;51.414;0.018;2024-01-11T02:53:38;0.30;99.90
42187;DHT22;27858;51.414;0.018;2024-01-11T02:56:05;0.40;99.90
42187;DHT22;27858;51.414;0.018;2024-01-11T02:58:31;0.40;99.90
42187;DHT22;27858;51.414;0.018;2024-01-11T03:00:58;0.40;99.90
42187;DHT22;27858;51.414;0.018;2024-01-11T03:03:25;0.40;99.90
42187;DHT22;27858;51.414;0.018;2024-01-11T03:05:52;0.40;99.90
42187;DHT22;27858;51.414;0.018;2024-01-11T03:08:19;0.40;99.90
42187;DHT22;27858;51.414;0.018;2024-01-11T03:10:46;0.50;99.90
42187;DHT22;27858;51.414;0.018;2024-01-11T03:13:13;0.40;99.90
42187;DHT22;27858;51.414;0.018;2024-01-11T03:15:40;0.40;99.90
42187;DHT22;27858;51.414;0.018;2024-01-11T03:18:07;0.40;99.90
42187;DHT22;27858;51.414;0.018;2024-01-11T03:20:34;0.50;99.90
42187;DHT22;27858;51.414;0.018;2024-01-11T03:23:01;0.50;99.90
42187;DHT22;27858;51.414;0.018;2024-01-11T03:25:29;0.60;99.90
42187;DHT22;27858;51.414;0.018;2024-01-11T03:27:57;0.60;99.90
42187;DHT22;27858;51.414;0.018;2024-01-11T03:30:24;0.50;99.90
42187;DHT22;27858;51.414;0.018;2024-01-11T03:32:51;0.60;99.90
42187;DHT22;27858;51.414;0.018;2024-01-11T03:35:19;0.50;99.90
42187;DHT22;27858;51.414;0.018;2024-01-11T03:37:46;0.50;99.90
42187;DHT22;27858;51.414;0.018;2024-01-11T03:40:12;0.50;99.90
42187;DHT22;27858;51.414;0.018;2024-01-11T03:42:41;0.40;99.90
42187;DHT22;27858;51.414;0.018;2024-01-11T03:45:08;0.40;99.90
42187;DHT22;27858;51.414;0.018;2024-01-11T03:47:35;0.40;99.90
42187;DHT22;27858;51.414;0.018;2024-01-11T03:50:02;0.30;99.90
42187;DHT22;27858;51.414;0.018;2024-01-11T03:52:30;0.30;99.90
42187;DHT22;27858;51.414;0.018;2024-01-11T03:54:57;0.30;99.90
42187;DHT22;27858;51.414;0.018;2024-01-11T03:57:23;0.30;99.90
42187;DHT22;27858;51.414;0.018;2024-01-11T03:59:50;0.30;99.90
42187;DHT22;27858;51.414;0.018;2024-01-11T04:02:17;0.20;99.90
42187;DHT22;27858;51.414;0.018;2024-01-11T04:04:44;0.30;99.90
42187;DHT22;27858;51.414;0.018;2024-01-11T04:07:10;0.30;99.90
42187;DHT22;27858;51.414;0.018;2024-01-11T04:09:40;0.30;99.90
42187;DHT22;27858;51.414;0.018;2024-01-11T04:12:07;0.20;99.90
42187;DHT22;27858;51.414;0.018;2024-01-11T04:14:38;0.10;99.90
42187;DHT22;27858;51.414;0.018;2024-01-11T04:17:05;0.10;99.90
42187;DHT22;27858;51.414;0.018;2024-01-11T04:19:32;0.10;99.90
42187;DHT22;27858;51.414;0.018;2024-01-11T04:21:59;0.00;99.90
42187;DHT22;27858;51.414;0.018;2024-01-11T04:24:26;0.10;99.90
42187;DHT22;27858;51.414;0.018;2024-01-11T04:26:53;0.10;99.90
42187;DHT22;27858;51.414;0.018;2024-01-11T04:29:19;0.00;99.90
42187;DHT22;27858;51.414;0.018;2024-01-11T04:31:46;0.10;99.90
42187;DHT22;27858;51.414;0.018;2024-01-11T04:34:13;0.10;99.90
42187;DHT22;27858;51.414;0.018;2024-01-11T04:36:40;0.10;99.90
42187;DHT22;27858;51.414;0.018;2024-01-11T04:39:06;0.00;99.90
42187;DHT22;27858;51.414;0.018;2024-01-11T04:41:35;0.10;99.90
42187;DHT22;27858;51.414;0.018;2024-01-11T04:44:05;0.00;99.90
42187;DHT22;27858;51.414;0.018;2024-01-11T04:46:32;0.00;99.90
42187;DHT22;27858;51.414;0.018;2024-01-11T04:48:59;0.00;99.90
42187;DHT22;27858;51.414;0.018;2024-01-11T04:51:26;0.00;99.90
42187;DHT22;27858;51.414;0.018;2024-01-11T04:53:53;0.00;99.90
42187;DHT22;27858;51.414;0.018;2024-01-11T04:56:20;0.00;99.90
42187;DHT22;27858;51.414;0.018;2024-01-11T04:58:47;0.00;99.90
42187;DHT22;27858;51.414;0.018;2024-01-11T05:01:17;0.00;99.90
42187;DHT22;27858;51.414;0.018;2024-01-11T05:03:45;0.00;99.90
42187;DHT22;27858;51.414;0.018;2024-01-11T05:06:20;0.00;99.90
42187;DHT22;27858;51.414;0.018;2024-01-11T05:08:49;0.00;99.90
42187;DHT22;27858;51.414;0.018;2024-01-11T05:11:20;0.10;99.90
42187;DHT22;27858;51.414;0.018;2024-01-11T05:13:48;0.00;99.90
42187;DHT22;27858;51.414;0.018;2024-01-11T05:16:22;0.10;99.90
42187;DHT22;27858;51.414;0.018;2024-01-11T05:18:53;0.10;99.90
42187;DHT22;27858;51.414;0.018;2024-01-11T05:21:21;0.10;99.90
42187;DHT22;27858;51.414;0.018;2024-01-11T05:23:49;0.20;99.90
42187;DHT22;27858;51.414;0.018;2024-01-11T05:26:16;0.10;99.90
42187;DHT22;27858;51.414;0.018;2024-01-11T05:28:44;0.20;99.90
42187;DHT22;27858;51.414;0.018;2024-01-11T05:31:12;0.10;99.90
42187;DHT22;27858;51.414;0.018;2024-01-11T05:33:39;0.20;99.90
42187;DHT22;27858;51.414;0.018;2024-01-11T05:36:07;0.20;99.90
42187;DHT22;27858;51.414;0.018;2024-01-11T05:38:35;0.10;99.90
42187;DHT22;27858;51.414;0.018;2024-01-11T05:41:02;0.10;99.90
42187;DHT22;27858;51.414;0.018;2024-01-11T05:43:29;0.10;99.90
42187;DHT22;27858;51.414;0.018;2024-01-11T05:45:55;0.10;99.90
42187;DHT22;27858;51.414;0.018;2024-01-11T05:48:22;0.10;99.90
42187;DHT22;27858;51.414;0.018;2024-01-11T05:50:49;0.20;99.90
42187;DHT22;27858;51.414;0.018;2024-01-11T05:53:16;0.00;99.90
42187;DHT22;27858;51.414;0.018;2024-01-11T05:55:47;0.10;99.90
42187;DHT22;27858;51.414;0.018;2024-01-11T05:58:14;0.10;99.90
42187;DHT22;27858;51.414;0.018;2024-01-11T06:00:41;0.10;99.90
42187;DHT22;27858;51.414;0.018;2024-01-11T06:03:08;0.10;99.90
42187;DHT22;27858;51.414;0.018;2024-01-11T06:05:35;0.10;99.90
42187;DHT22;27858;51.414;0.018;2024-01-11T06:08:02;0.10;99.90
42187;DHT22;27858;51.414;0.018;2024-01-11T06:10:29;0.20;99.90
42187;DHT22;27858;51.414;0.018;2024-01-11T06:12:57;0.20;99.90
42187;DHT22;27858;51.414;0.018;2024-01-11T06:15:24;0.10;99.90
42187;DHT22;27858;51.414;0.018;2024-01-11T06:17:51;0.10;99.90
42187;DHT22;27858;51.414;0.018;2024-01-11T06:20:18;0.30;99.90
42187;DHT22;27858;51.414;0.018;2024-01-11T06:22:44;0.20;99.90
42187;DHT22;27858;51.414;0.018;2024-01-11T06:25:12;0.20;99.90
42187;DHT22;27858;51.414;0.018;2024-01-11T06:27:38;0.20;99.90
42187;DHT22;27858;51.414;0.018;2024-01-11T06:30:06;0.30;99.90
42187;DHT22;27858;51.414;0.018;2024-01-11T06:32:33;0.30;99.90
42187;DHT22;27858;51.414;0.018;2024-01-11T06:35:00;0.30;99.90
42187;DHT22;27858;51.414;0.018;2024-01-11T06:37:28;0.30;99.90
42187;DHT22;27858;51.414;0.018;2024-01-11T06:39:55;0.50;99.90
42187;DHT22;27858;51.414;0.018;2024-01-11T06:42:22;0.50;99.90
42187;DHT22;27858;51.414;0.018;2024-01-11T06:44:49;0.50;99.90
42187;DHT22;27858;51.414;0.018;2024-01-11T06:47:16;0.50;99.90
42187;DHT22;27858;51.414;0.018;2024-01-11T06:49:43;0.60;99.90
42187;DHT22;27858;51.414;0.018;2024-01-11T06:52:10;0.60;99.90
42187;DHT22;27858;51.414;0.018;2024-01-11T06:54:37;0.60;99.90
42187;DHT22;27858;51.414;0.018;2024-01-11T06:57:03;0.60;99.90
42187;DHT22;27858;51.414;0.018;2024-01-11T06:59:30;0.70;99.90
42187;DHT22;27858;51.414;0.018;2024-01-11T07:01:57;0.60;99.90
42187;DHT22;27858;51.414;0.018;2024-01-11T07:04:24;0.60;99.90
42187;DHT22;27858;51.414;0.018;2024-01-11T07:06:51;0.60;99.90
42187;DHT22;27858;51.414;0.018;2024-01-11T07:09:17;0.60;99.90
42187;DHT22;27858;51.414;0.018;2024-01-11T07:11:45;0.50;99.90
42187;DHT22;27858;51.414;0.018;2024-01-11T07:14:11;0.50;99.90
42187;DHT22;27858;51.414;0.018;2024-01-11T07:16:38;0.50;99.90
42187;DHT22;27858;51.414;0.018;2024-01-11T07:19:05;0.50;99.90
42187;DHT22;27858;51.414;0.018;2024-01-11T07:21:32;0.50;99.90
42187;DHT22;27858;51.414;0.018;2024-01-11T07:23:59;0.60;99.90
42187;DHT22;27858;51.414;0.018;2024-01-11T07:26:26;0.50;99.90
42187;DHT22;27858;51.414;0.018;2024-01-11T07:28:54;0.50;99.90
42187;DHT22;27858;51.414;0.018;2024-01-11T07:31:24;0.60;99.90
42187;DHT22;27858;51.414;0.018;2024-01-11T07:33:50;0.60;99.90
42187;DHT22;27858;51.414;0.018;2024-01-11T07:36:17;0.60;99.90
42187;DHT22;27858;51.414;0.018;2024-01-11T07:38:44;0.60;99.90
42187;DHT22;27858;51.414;0.018;2024-01-11T07:41:11;0.60;99.90
42187;DHT22;27858;51.414;0.018;2024-01-11T07:43:39;0.50;99.90
42187;DHT22;27858;51.414;0.018;2024-01-11T07:46:19;0.60;99.90
42187;DHT22;27858;51.414;0.018;2024-01-11T07:48:59;0.60;99.90
42187;DHT22;27858;51.414;0.018;2024-01-11T07:51:26;0.50;99.90
42187;DHT22;27858;51.414;0.018;2024-01-11T07:53:53;0.50;99.90
42187;DHT22;27858;51.414;0.018;2024-01-11T07:56:20;0.50;99.90
42187;DHT22;27858;51.414;0.018;2024-01-11T07:58:47;0.50;99.90
42187;DHT22;27858;51.414;0.018;2024-01-11T08:01:16;0.50;99.90
42187;DHT22;27858;51.414;0.018;2024-01-11T08:03:43;0.50;99.90
42187;DHT22;27858;51.414;0.018;2024-01-11T08:06:14;0.60;99.90
42187;DHT22;27858;51.414;0.018;2024-01-11T08:08:41;0.60;99.90
42187;DHT22;27858;51.414;0.018;2024-01-11T08:11:08;0.60;99.90
42187;DHT22;27858;51.414;0.018;2024-01-11T08:13:35;0.60;99.90
42187;DHT22;27858;51.414;0.018;2024-01-11T08:16:04;0.70;99.90
42187;DHT22;27858;51.414;0.018;2024-01-11T08:18:34;0.60;99.90
42187;DHT22;27858;51.414;0.018;2024-01-11T08:21:01;0.70;99.90
42187;DHT22;27858;51.414;0.018;2024-01-11T08:23:27;0.70;99.90
42187;DHT22;27858;51.414;0.018;2024-01-11T08:25:54;0.70;99.90
42187;DHT22;27858;51.414;0.018;2024-01-11T08:28:21;0.70;99.90
42187;DHT22;27858;51.414;0.018;2024-01-11T08:30:49;0.80;99.90
42187;DHT22;27858;51.414;0.018;2024-01-11T08:33:15;0.80;99.90
42187;DHT22;27858;51.414;0.018;2024-01-11T08:35:43;0.70;99.90
42187;DHT22;27858;51.414;0.018;2024-01-11T08:38:09;0.80;99.90
42187;DHT22;27858;51.414;0.018;2024-01-11T08:40:37;0.80;99.90
42187;DHT22;27858;51.414;0.018;2024-01-11T08:43:04;0.80;99.90
42187;DHT22;27858;51.414;0.018;2024-01-11T08:45:32;0.80;99.90
42187;DHT22;27858;51.414;0.018;2024-01-11T08:47:59;0.80;99.90
42187;DHT22;27858;51.414;0.018;2024-01-11T08:50:27;0.80;99.90
42187;DHT22;27858;51.414;0.018;2024-01-11T08:52:55;0.90;99.90
42187;DHT22;27858;51.414;0.018;2024-01-11T08:55:22;0.90;99.90
42187;DHT22;27858;51.414;0.018;2024-01-11T08:57:50;1.00;99.90
42187;DHT22;27858;51.414;0.018;2024-01-11T09:00:17;1.00;99.90
42187;DHT22;27858;51.414;0.018;2024-01-11T09:02:45;1.00;99.90
42187;DHT22;27858;51.414;0.018;2024-01-11T09:05:16;1.10;99.90
42187;DHT22;27858;51.414;0.018;2024-01-11T09:07:43;1.10;99.90
42187;DHT22;27858;51.414;0.018;2024-01-11T09:10:10;1.10;99.90
42187;DHT22;27858;51.414;0.018;2024-01-11T09:12:39;1.20;99.90
42187;DHT22;27858;51.414;0.018;2024-01-11T09:15:06;1.20;99.90
42187;DHT22;27858;51.414;0.018;2024-01-11T09:17:33;1.20;99.90
42187;DHT22;27858;51.414;0.018;2024-01-11T09:20:00;1.20;99.90
42187;DHT22;27858;51.414;0.018;2024-01-11T09:22:27;1.30;99.90
42187;DHT22;27858;51.414;0.018;2024-01-11T09:24:54;1.30;99.90
42187;DHT22;27858;51.414;0.018;2024-01-11T09:27:22;1.40;99.90
42187;DHT22;27858;51.414;0.018;2024-01-11T09:29:49;1.50;99.90
42187;DHT22;27858;51.414;0.018;2024-01-11T09:32:21;1.50;99.90
42187;DHT22;27858;51.414;0.018;2024-01-11T09:34:48;1.50;99.90
42187;DHT22;27858;51.414;0.018;2024-01-11T09:37:14;1.60;99.90
42187;DHT22;27858;51.414;0.018;2024-01-11T09:39:41;1.60;99.90
42187;DHT22;27858;51.414;0.018;2024-01-11T09:42:09;1.70;99.90
42187;DHT22;27858;51.414;0.018;2024-01-11T09:44:37;1.80;99.90
42187;DHT22;27858;51.414;0.018;2024-01-11T09:47:09;1.80;99.90
42187;DHT22;27858;51.414;0.018;2024-01-11T09:49:43;1.90;99.90
42187;DHT22;27858;51.414;0.018;2024-01-11T09:52:12;1.90;99.90
42187;DHT22;27858;51.414;0.018;2024-01-11T09:54:41;2.00;99.90
42187;DHT22;27858;51.414;0.018;2024-01-11T09:57:09;2.00;99.90
42187;DHT22;27858;51.414;0.018;2024-01-11T09:59:36;2.10;99.90
42187;DHT22;27858;51.414;0.018;2024-01-11T10:02:03;2.20;99.90
42187;DHT22;27858;51.414;0.018;2024-01-11T10:04:35;2.20;99.90
42187;DHT22;27858;51.414;0.018;2024-01-11T10:07:04;2.30;99.90
42187;DHT22;27858;51.414;0.018;2024-01-11T10:09:32;2.30;99.90
42187;DHT22;27858;51.414;0.018;2024-01-11T10:11:59;2.40;99.90
42187;DHT22;27858;51.414;0.018;2024-01-11T10:14:26;2.40;99.90
42187;DHT22;27858;51.414;0.018;2024-01-11T10:16:54;2.40;99.90
42187;DHT22;27858;51.414;0.018;2024-01-11T10:19:21;2.50;99.90
42187;DHT22;27858;51.414;0.018;2024-01-11T10:21:49;2.50;99.90
42187;DHT22;27858;51.414;0.018;2024-01-11T10:24:19;2.60;99.90
42187;DHT22;27858;51.414;0.018;2024-01-11T10:26:47;2.60;99.90
42187;DHT22;27858;51.414;0.018;2024-01-11T10:29:14;2.70;99.90
42187;DHT22;27858;51.414;0.018;2024-01-11T10:31:41;2.80;99.90
42187;DHT22;27858;51.414;0.018;2024-01-11T10:34:08;2.80;99.90
42187;DHT22;27858;51.414;0.018;2024-01-11T10:36:36;2.90;99.90
42187;DHT22;27858;51.414;0.018;2024-01-11T10:39:03;3.00;99.90
42187;DHT22;27858;51.414;0.018;2024-01-11T10:41:40;3.00;99.90
42187;DHT22;27858;51.414;0.018;2024-01-11T10:44:18;3.00;99.90
42187;DHT22;27858;51.414;0.018;2024-01-11T10:46:47;3.20;99.90
42187;DHT22;27858;51.414;0.018;2024-01-11T10:49:18;3.20;99.90
42187;DHT22;27858;51.414;0.018;2024-01-11T10:51:52;3.20;99.90
42187;DHT22;27858;51.414;0.018;2024-01-11T10:54:20;3.30;99.90
42187;DHT22;27858;51.414;0.018;2024-01-11T10:56:48;3.40;99.90
42187;DHT22;27858;51.414;0.018;2024-01-11T10:59:17;3.40;99.90
42187;DHT22;27858;51.414;0.018;2024-01-11T11:01:46;3.60;99.90
42187;DHT22;27858;51.414;0.018;2024-01-11T11:04:13;3.70;99.90
42187;DHT22;27858;51.414;0.018;2024-01-11T11:06:42;3.80;99.90
42187;DHT22;27858;51.414;0.018;2024-01-11T11:09:11;4.00;99.90
42187;DHT22;27858;51.414;0.018;2024-01-11T11:11:39;4.00;99.90
42187;DHT22;27858;51.414;0.018;2024-01-11T11:14:06;4.20;99.90
42187;DHT22;27858;51.414;0.018;2024-01-11T11:16:35;4.20;99.90
42187;DHT22;27858;51.414;0.018;2024-01-11T11:19:01;4.30;99.90
42187;DHT22;27858;51.414;0.018;2024-01-11T11:21:29;4.30;99.90
42187;DHT22;27858;51.414;0.018;2024-01-11T11:23:56;4.30;99.90
42187;DHT22;27858;51.414;0.018;2024-01-11T11:26:26;4.40;99.90
42187;DHT22;27858;51.414;0.018;2024-01-11T11:28:53;4.50;99.90
42187;DHT22;27858;51.414;0.018;2024-01-11T11:31:42;4.60;99.90
42187;DHT22;27858;51.414;0.018;2024-01-11T11:34:13;4.60;99.90
42187;DHT22;27858;51.414;0.018;2024-01-11T11:36:41;4.60;99.90
42187;DHT22;27858;51.414;0.018;2024-01-11T11:39:10;4.70;99.90
42187;DHT22;27858;51.414;0.018;2024-01-11T11:41:41;4.70;99.90
42187;DHT22;27858;51.414;0.018;2024-01-11T11:44:12;4.70;99.90
42187;DHT22;27858;51.414;0.018;2024-01-11T11:46:40;4.80;99.90
42187;DHT22;27858;51.414;0.018;2024-01-11T11:49:07;4.80;99.90
42187;DHT22;27858;51.414;0.018;2024-01-11T11:51:39;4.80;99.90
42187;DHT22;27858;51.414;0.018;2024-01-11T11:54:08;4.90;99.90
42187;DHT22;27858;51.414;0.018;2024-01-11T11:56:36;4.90;99.90
42187;DHT22;27858;51.414;0.018;2024-01-11T11:59:03;5.00;99.90
42187;DHT22;27858;51.414;0.018;2024-01-11T12:01:31;5.00;99.90
42187;DHT22;27858;51.414;0.018;2024-01-11T12:03:58;5.00;99.90
42187;DHT22;27858;51.414;0.018;2024-01-11T12:06:25;5.10;99.90
42187;DHT22;27858;51.414;0.018;2024-01-11T12:08:56;5.10;99.90
42187;DHT22;27858;51.414;0.018;2024-01-11T12:11:24;5.10;99.90
42187;DHT22;27858;51.414;0.018;2024-01-11T12:13:52;5.10;99.90
42187;DHT22;27858;51.414;0.018;2024-01-11T12:16:20;5.10;99.90
42187;DHT22;27858;51.414;0.018;2024-01-11T12:18:48;5.10;99.90
42187;DHT22;27858;51.414;0.018;2024-01-11T12:21:15;5.10;99.90
42187;DHT22;27858;51.414;0.018;2024-01-11T12:23:43;5.10;99.90
42187;DHT22;27858;51.414;0.018;2024-01-11T12:26:10;5.10;99.90
42187;DHT22;27858;51.414;0.018;2024-01-11T12:28:42;5.10;99.90
42187;DHT22;27858;51.414;0.018;2024-01-11T12:31:11;5.10;99.90
42187;DHT22;27858;51.414;0.018;2024-01-11T12:33:39;5.10;99.90
42187;DHT22;27858;51.414;0.018;2024-01-11T12:36:07;5.10;99.90
42187;DHT22;27858;51.414;0.018;2024-01-11T12:38:37;5.10;99.90
42187;DHT22;27858;51.414;0.018;2024-01-11T12:41:05;5.10;99.90
42187;DHT22;27858;51.414;0.018;2024-01-11T12:43:32;5.10;99.90
42187;DHT22;27858;51.414;0.018;2024-01-11T12:46:00;5.00;99.90
42187;DHT22;27858;51.414;0.018;2024-01-11T12:48:27;5.00;99.90
42187;DHT22;27858;51.414;0.018;2024-01-11T12:50:55;5.00;99.90
42187;DHT22;27858;51.414;0.018;2024-01-11T12:53:39;4.90;99.90
42187;DHT22;27858;51.414;0.018;2024-01-11T12:56:08;4.90;99.90
42187;DHT22;27858;51.414;0.018;2024-01-11T12:58:37;4.80;99.90
42187;DHT22;27858;51.414;0.018;2024-01-11T13:01:08;4.80;99.90
42187;DHT22;27858;51.414;0.018;2024-01-11T13:03:38;4.80;99.90
42187;DHT22;27858;51.414;0.018;2024-01-11T13:06:05;4.80;99.90
42187;DHT22;27858;51.414;0.018;2024-01-11T13:08:32;4.80;99.90
42187;DHT22;27858;51.414;0.018;2024-01-11T13:11:03;4.80;99.90
42187;DHT22;27858;51.414;0.018;2024-01-11T13:13:34;4.80;99.90
42187;DHT22;27858;51.414;0.018;2024-01-11T13:16:02;4.90;99.90
42187;DHT22;27858;51.414;0.018;2024-01-11T13:18:32;4.90;99.90
42187;DHT22;27858;51.414;0.018;2024-01-11T13:20:59;4.90;99.90
42187;DHT22;27858;51.414;0.018;2024-01-11T13:23:26;4.90;99.90
42187;DHT22;27858;51.414;0.018;2024-01-11T13:25:53;4.90;99.90
42187;DHT22;27858;51.414;0.018;2024-01-11T13:28:20;4.90;99.90
42187;DHT22;27858;51.414;0.018;2024-01-11T13:30:47;4.80;99.90
42187;DHT22;27858;51.414;0.018;2024-01-11T13:33:15;4.80;99.90
42187;DHT22;27858;51.414;0.018;2024-01-11T13:35:45;4.90;99.90
42187;DHT22;27858;51.414;0.018;2024-01-11T13:38:12;4.70;99.90
42187;DHT22;27858;51.414;0.018;2024-01-11T13:40:39;4.70;99.90
42187;DHT22;27858;51.414;0.018;2024-01-11T13:43:07;4.70;99.90
42187;DHT22;27858;51.414;0.018;2024-01-11T13:45:33;4.70;99.90
42187;DHT22;27858;51.414;0.018;2024-01-11T13:48:04;4.70;99.90
42187;DHT22;27858;51.414;0.018;2024-01-11T13:50:31;4.60;99.90
42187;DHT22;27858;51.414;0.018;2024-01-11T13:52:59;4.70;99.90
42187;DHT22;27858;51.414;0.018;2024-01-11T13:55:27;4.70;99.90
42187;DHT22;27858;51.414;0.018;2024-01-11T13:57:56;4.60;99.90
42187;DHT22;27858;51.414;0.018;2024-01-11T14:00:23;4.70;99.90
42187;DHT22;27858;51.414;0.018;2024-01-11T14:02:50;4.70;99.90
42187;DHT22;27858;51.414;0.018;2024-01-11T14:05:17;4.60;99.90
42187;DHT22;27858;51.414;0.018;2024-01-11T14:07:45;4.60;99.90
42187;DHT22;27858;51.414;0.018;2024-01-11T14:10:14;4.70;99.90
42187;DHT22;27858;51.414;0.018;2024-01-11T14:12:41;4.60;99.90
42187;DHT22;27858;51.414;0.018;2024-01-11T14:15:09;4.60;99.90
42187;DHT22;27858;51.414;0.018;2024-01-11T14:20:19;4.60;99.90
42187;DHT22;27858;51.414;0.018;2024-01-11T14:22:48;4.60;99.90
42187;DHT22;27858;51.414;0.018;2024-01-11T14:25:19;4.60;99.90
42187;DHT22;27858;51.414;0.018;2024-01-11T14:27:48;4.60;99.90
42187;DHT22;27858;51.414;0.018;2024-01-11T14:30:15;4.60;99.90
42187;DHT22;27858;51.414;0.018;2024-01-11T14:32:42;4.60;99.90
42187;DHT22;27858;51.414;0.018;2024-01-11T14:35:10;4.60;99.90
42187;DHT22;27858;51.414;0.018;2024-01-11T14:37:38;4.60;99.90
42187;DHT22;27858;51.414;0.018;2024-01-11T14:40:07;4.60;99.90
42187;DHT22;27858;51.414;0.018;2024-01-11T14:42:34;4.60;99.90
42187;DHT22;27858;51.414;0.018;2024-01-11T14:45:00;4.60;99.90
42187;DHT22;27858;51.414;0.018;2024-01-11T14:47:28;4.70;99.90
42187;DHT22;27858;51.414;0.018;2024-01-11T14:49:55;4.60;99.90
42187;DHT22;27858;51.414;0.018;2024-01-11T14:52:21;4.70;99.90
42187;DHT22;27858;51.414;0.018;2024-01-11T14:54:48;4.70;99.90
42187;DHT22;27858;51.414;0.018;2024-01-11T14:57:15;4.80;99.90
42187;DHT22;27858;51.414;0.018;2024-01-11T14:59:43;4.80;99.90
42187;DHT22;27858;51.414;0.018;2024-01-11T15:02:10;4.80;99.90
42187;DHT22;27858;51.414;0.018;2024-01-11T15:04:38;4.80;99.90
42187;DHT22;27858;51.414;0.018;2024-01-11T15:07:06;4.80;99.90
42187;DHT22;27858;51.414;0.018;2024-01-11T15:09:37;4.80;99.90
42187;DHT22;27858;51.414;0.018;2024-01-11T15:12:07;4.80;99.90
42187;DHT22;27858;51.414;0.018;2024-01-11T15:14:35;4.90;99.90
42187;DHT22;27858;51.414;0.018;2024-01-11T15:17:02;4.90;99.90
42187;DHT22;27858;51.414;0.018;2024-01-11T15:19:32;4.90;99.90
42187;DHT22;27858;51.414;0.018;2024-01-11T15:22:00;4.80;99.90
42187;DHT22;27858;51.414;0.018;2024-01-11T15:24:29;4.90;99.90
42187;DHT22;27858;51.414;0.018;2024-01-11T15:27:00;4.90;99.90
42187;DHT22;27858;51.414;0.018;2024-01-11T15:29:30;4.90;99.90
42187;DHT22;27858;51.414;0.018;2024-01-11T15:31:57;5.00;99.90
42187;DHT22;27858;51.414;0.018;2024-01-11T15:34:24;5.00;99.90
42187;DHT22;27858;51.414;0.018;2024-01-11T15:36:52;5.00;99.90
42187;DHT22;27858;51.414;0.018;2024-01-11T15:39:20;5.00;99.90
42187;DHT22;27858;51.414;0.018;2024-01-11T15:41:55;5.00;99.90
42187;DHT22;27858;51.414;0.018;2024-01-11T15:44:26;5.00;99.90
42187;DHT22;27858;51.414;0.018;2024-01-11T15:46:56;5.00;99.90
42187;DHT22;27858;51.414;0.018;2024-01-11T15:49:26;5.00;99.90
42187;DHT22;27858;51.414;0.018;2024-01-11T15:51:58;5.00;99.90